sensor_id;sensor_type;location;lat;lon;timestamp;temperature;humidity
72883;DHT22;61017;37.812;-122.286;2023-04-01T00:00:28;14.20;59.50
72883;DHT22;61017;37.812;-122.286;2023-04-01T00:01:59;14.20;57.50
72883;DHT22;61017;37.812;-122.286;2023-04-01T00:03:30;14.20;57.80
72883;DHT22;61017;37.812;-122.286;2023-04-01T00:05:02;14.20;58.20
72883;DHT22;61017;37.812;-122.286;2023-04-01T00:06:33;14.20;58.20
72883;DHT22;61017;37.812;-122.286;2023-04-01T00:08:04;14.20;57.10
72883;DHT22;61017;37.812;-122.286;2023-04-01T00:09:35;14.20;57.30
72883;DHT22;61017;37.812;-122.286;2023-04-01T00:11:06;14.20;57.10
72883;DHT22;61017;37.812;-122.286;2023-04-01T00:12:38;14.20;56.60
72883;DHT22;61017;37.812;-122.286;2023-04-01T00:14:09;14.10;56.40
72883;DHT22;61017;37.812;-122.286;2023-04-01T00:15:40;14.10;57.10
72883;DHT22;61017;37.812;-122.286;2023-04-01T00:17:11;14.10;57.90
72883;DHT22;61017;37.812;-122.286;2023-04-01T00:18:42;14.10;58.40
72883;DHT22;61017;37.812;-122.286;2023-04-01T00:20:13;14.10;57.70
72883;DHT22;61017;37.812;-122.286;2023-04-01T00:21:44;14.10;58.20
72883;DHT22;61017;37.812;-122.286;2023-04-01T00:23:16;14.10;58.90
72883;DHT22;61017;37.812;-122.286;2023-04-01T00:24:47;14.10;59.00
72883;DHT22;61017;37.812;-122.286;2023-04-01T00:26:18;14.10;58.60
72883;DHT22;61017;37.812;-122.286;2023-04-01T00:27:49;14.10;58.40
72883;DHT22;61017;37.812;-122.286;2023-04-01T00:29:21;14.10;59.30
72883;DHT22;61017;37.812;-122.286;2023-04-01T00:30:52;14.10;60.30
72883;DHT22;61017;37.812;-122.286;2023-04-01T00:32:23;14.00;60.60
72883;DHT22;61017;37.812;-122.286;2023-04-01T00:33:54;14.10;61.40
72883;DHT22;61017;37.812;-122.286;2023-04-01T00:35:25;14.10;61.60
72883;DHT22;61017;37.812;-122.286;2023-04-01T00:36:56;14.10;60.60
72883;DHT22;61017;37.812;-122.286;2023-04-01T00:38:27;14.10;61.70
72883;DHT22;61017;37.812;-122.286;2023-04-01T00:39:58;14.10;62.10
72883;DHT22;61017;37.812;-122.286;2023-04-01T00:41:29;14.10;62.40
72883;DHT22;61017;37.812;-122.286;2023-04-01T00:43:00;14.10;62.70
72883;DHT22;61017;37.812;-122.286;2023-04-01T00:44:33;14.10;63.00
72883;DHT22;61017;37.812;-122.286;2023-04-01T00:46:04;14.10;63.20
72883;DHT22;61017;37.812;-122.286;2023-04-01T00:47:35;14.10;63.40
72883;DHT22;61017;37.812;-122.286;2023-04-01T00:49:06;14.10;63.80
72883;DHT22;61017;37.812;-122.286;2023-04-01T00:50:38;14.10;64.00
72883;DHT22;61017;37.812;-122.286;2023-04-01T00:52:12;14.10;64.10
72883;DHT22;61017;37.812;-122.286;2023-04-01T00:53:48;14.10;64.50
72883;DHT22;61017;37.812;-122.286;2023-04-01T00:55:20;14.10;64.70
72883;DHT22;61017;37.812;-122.286;2023-04-01T00:56:56;14.10;64.90
72883;DHT22;61017;37.812;-122.286;2023-04-01T00:58:29;14.10;65.20
72883;DHT22;61017;37.812;-122.286;2023-04-01T01:00:04;14.10;65.50
72883;DHT22;61017;37.812;-122.286;2023-04-01T01:01:35;14.10;65.50
72883;DHT22;61017;37.812;-122.286;2023-04-01T01:03:06;14.10;65.80
72883;DHT22;61017;37.812;-122.286;2023-04-01T01:04:37;14.10;66.00
72883;DHT22;61017;37.812;-122.286;2023-04-01T01:07:45;14.10;66.40
72883;DHT22;61017;37.812;-122.286;2023-04-01T01:10:59;14.20;66.80
72883;DHT22;61017;37.812;-122.286;2023-04-01T01:12:54;14.10;66.90
72883;DHT22;61017;37.812;-122.286;2023-04-01T01:16:24;14.20;67.60
72883;DHT22;61017;37.812;-122.286;2023-04-01T01:30:04;14.20;68.60
72883;DHT22;61017;37.812;-122.286;2023-04-01T01:36:53;14.20;68.80
72883;DHT22;61017;37.812;-122.286;2023-04-01T01:38:27;14.20;68.90
72883;DHT22;61017;37.812;-122.286;2023-04-01T01:40:04;14.10;69.00
72883;DHT22;61017;37.812;-122.286;2023-04-01T01:41:36;14.20;69.30
72883;DHT22;61017;37.812;-122.286;2023-04-01T01:43:10;14.20;69.20
72883;DHT22;61017;37.812;-122.286;2023-04-01T01:44:43;14.20;69.20
72883;DHT22;61017;37.812;-122.286;2023-04-01T01:46:17;14.20;69.30
72883;DHT22;61017;37.812;-122.286;2023-04-01T01:47:50;14.20;69.50
72883;DHT22;61017;37.812;-122.286;2023-04-01T01:49:21;14.10;69.40
72883;DHT22;61017;37.812;-122.286;2023-04-01T01:50:53;14.20;69.60
72883;DHT22;61017;37.812;-122.286;2023-04-01T01:52:26;14.20;69.60
72883;DHT22;61017;37.812;-122.286;2023-04-01T01:53:57;14.10;69.60
72883;DHT22;61017;37.812;-122.286;2023-04-01T01:55:32;14.20;69.70
72883;DHT22;61017;37.812;-122.286;2023-04-01T01:57:05;14.20;70.00
72883;DHT22;61017;37.812;-122.286;2023-04-01T01:58:44;14.20;69.80
72883;DHT22;61017;37.812;-122.286;2023-04-01T02:00:16;14.20;69.90
72883;DHT22;61017;37.812;-122.286;2023-04-01T02:01:52;14.20;70.80
72883;DHT22;61017;37.812;-122.286;2023-04-01T02:03:24;14.20;70.00
72883;DHT22;61017;37.812;-122.286;2023-04-01T02:04:56;14.20;70.40
72883;DHT22;61017;37.812;-122.286;2023-04-01T02:06:28;14.20;70.30
72883;DHT22;61017;37.812;-122.286;2023-04-01T02:08:06;14.20;70.30
72883;DHT22;61017;37.812;-122.286;2023-04-01T02:09:38;14.20;70.50
72883;DHT22;61017;37.812;-122.286;2023-04-01T02:11:11;14.20;70.50
72883;DHT22;61017;37.812;-122.286;2023-04-01T02:12:42;14.20;70.50
72883;DHT22;61017;37.812;-122.286;2023-04-01T02:14:25;14.10;70.70
72883;DHT22;61017;37.812;-122.286;2023-04-01T02:15:58;14.20;70.70
72883;DHT22;61017;37.812;-122.286;2023-04-01T02:17:31;14.20;70.80
72883;DHT22;61017;37.812;-122.286;2023-04-01T02:19:03;14.20;70.90
72883;DHT22;61017;37.812;-122.286;2023-04-01T02:20:35;14.20;71.00
72883;DHT22;61017;37.812;-122.286;2023-04-01T02:22:12;14.10;70.70
72883;DHT22;61017;37.812;-122.286;2023-04-01T02:23:44;14.20;70.90
72883;DHT22;61017;37.812;-122.286;2023-04-01T02:25:20;14.20;71.10
72883;DHT22;61017;37.812;-122.286;2023-04-01T02:26:53;14.20;71.20
72883;DHT22;61017;37.812;-122.286;2023-04-01T02:28:24;14.20;71.10
72883;DHT22;61017;37.812;-122.286;2023-04-01T02:29:56;14.20;71.00
72883;DHT22;61017;37.812;-122.286;2023-04-01T02:31:27;14.20;71.30
72883;DHT22;61017;37.812;-122.286;2023-04-01T02:32:58;14.20;71.10
72883;DHT22;61017;37.812;-122.286;2023-04-01T02:34:29;14.20;71.20
72883;DHT22;61017;37.812;-122.286;2023-04-01T02:36:01;14.20;71.40
72883;DHT22;61017;37.812;-122.286;2023-04-01T02:37:32;14.20;71.60
72883;DHT22;61017;37.812;-122.286;2023-04-01T02:39:03;14.20;71.50
72883;DHT22;61017;37.812;-122.286;2023-04-01T02:40:50;14.10;71.60
72883;DHT22;61017;37.812;-122.286;2023-04-01T02:42:21;14.20;71.70
72883;DHT22;61017;37.812;-122.286;2023-04-01T02:43:57;14.20;71.50
72883;DHT22;61017;37.812;-122.286;2023-04-01T02:45:31;14.20;71.60
72883;DHT22;61017;37.812;-122.286;2023-04-01T02:47:02;14.20;71.60
72883;DHT22;61017;37.812;-122.286;2023-04-01T02:48:33;14.20;71.40
72883;DHT22;61017;37.812;-122.286;2023-04-01T02:50:05;14.20;71.50
72883;DHT22;61017;37.812;-122.286;2023-04-01T02:51:36;14.10;71.70
72883;DHT22;61017;37.812;-122.286;2023-04-01T02:53:07;14.10;71.70
72883;DHT22;61017;37.812;-122.286;2023-04-01T02:54:41;14.10;71.70
72883;DHT22;61017;37.812;-122.286;2023-04-01T02:56:12;14.10;71.60
72883;DHT22;61017;37.812;-122.286;2023-04-01T02:57:43;14.20;71.70
72883;DHT22;61017;37.812;-122.286;2023-04-01T02:59:14;14.20;71.90
72883;DHT22;61017;37.812;-122.286;2023-04-01T03:00:45;14.20;71.80
72883;DHT22;61017;37.812;-122.286;2023-04-01T03:02:17;14.20;71.80
72883;DHT22;61017;37.812;-122.286;2023-04-01T03:03:48;14.20;71.90
72883;DHT22;61017;37.812;-122.286;2023-04-01T03:05:25;14.20;71.90
72883;DHT22;61017;37.812;-122.286;2023-04-01T03:06:56;14.20;71.90
72883;DHT22;61017;37.812;-122.286;2023-04-01T03:08:27;14.20;71.90
72883;DHT22;61017;37.812;-122.286;2023-04-01T03:09:58;14.20;71.90
72883;DHT22;61017;37.812;-122.286;2023-04-01T03:11:29;14.20;72.10
72883;DHT22;61017;37.812;-122.286;2023-04-01T03:13:00;14.20;72.00
72883;DHT22;61017;37.812;-122.286;2023-04-01T03:14:31;14.20;72.10
72883;DHT22;61017;37.812;-122.286;2023-04-01T03:16:03;14.20;72.00
72883;DHT22;61017;37.812;-122.286;2023-04-01T03:17:34;14.20;72.10
72883;DHT22;61017;37.812;-122.286;2023-04-01T03:19:05;14.20;71.90
72883;DHT22;61017;37.812;-122.286;2023-04-01T03:20:36;14.10;72.10
72883;DHT22;61017;37.812;-122.286;2023-04-01T03:22:08;14.20;72.60
72883;DHT22;61017;37.812;-122.286;2023-04-01T03:23:39;14.20;72.00
72883;DHT22;61017;37.812;-122.286;2023-04-01T03:25:10;14.20;72.20
72883;DHT22;61017;37.812;-122.286;2023-04-01T03:26:41;14.20;72.40
72883;DHT22;61017;37.812;-122.286;2023-04-01T03:28:12;14.20;72.60
72883;DHT22;61017;37.812;-122.286;2023-04-01T03:29:43;14.10;72.30
72883;DHT22;61017;37.812;-122.286;2023-04-01T03:31:15;14.20;72.40
72883;DHT22;61017;37.812;-122.286;2023-04-01T03:32:46;14.20;72.50
72883;DHT22;61017;37.812;-122.286;2023-04-01T03:34:17;14.20;72.20
72883;DHT22;61017;37.812;-122.286;2023-04-01T03:35:48;14.20;72.30
72883;DHT22;61017;37.812;-122.286;2023-04-01T03:37:19;14.20;72.20
72883;DHT22;61017;37.812;-122.286;2023-04-01T03:38:50;14.20;72.60
72883;DHT22;61017;37.812;-122.286;2023-04-01T03:40:21;14.20;72.70
72883;DHT22;61017;37.812;-122.286;2023-04-01T03:41:52;14.20;72.20
72883;DHT22;61017;37.812;-122.286;2023-04-01T03:43:23;14.20;72.30
72883;DHT22;61017;37.812;-122.286;2023-04-01T03:44:54;14.20;72.30
72883;DHT22;61017;37.812;-122.286;2023-04-01T03:46:26;14.20;72.60
72883;DHT22;61017;37.812;-122.286;2023-04-01T03:47:57;14.20;72.80
72883;DHT22;61017;37.812;-122.286;2023-04-01T03:49:28;14.20;72.80
72883;DHT22;61017;37.812;-122.286;2023-04-01T03:51:00;14.20;72.60
72883;DHT22;61017;37.812;-122.286;2023-04-01T03:52:31;14.10;72.70
72883;DHT22;61017;37.812;-122.286;2023-04-01T03:54:02;14.20;72.70
72883;DHT22;61017;37.812;-122.286;2023-04-01T03:55:33;14.20;72.80
72883;DHT22;61017;37.812;-122.286;2023-04-01T03:57:05;14.20;72.90
72883;DHT22;61017;37.812;-122.286;2023-04-01T03:58:37;14.20;73.00
72883;DHT22;61017;37.812;-122.286;2023-04-01T04:00:08;14.10;72.80
72883;DHT22;61017;37.812;-122.286;2023-04-01T04:01:39;14.20;72.90
72883;DHT22;61017;37.812;-122.286;2023-04-01T04:03:10;14.10;72.90
72883;DHT22;61017;37.812;-122.286;2023-04-01T04:04:43;14.20;72.60
72883;DHT22;61017;37.812;-122.286;2023-04-01T04:06:15;14.20;72.60
72883;DHT22;61017;37.812;-122.286;2023-04-01T04:07:46;14.20;73.20
72883;DHT22;61017;37.812;-122.286;2023-04-01T04:09:17;14.20;72.60
72883;DHT22;61017;37.812;-122.286;2023-04-01T04:10:54;14.20;72.60
72883;DHT22;61017;37.812;-122.286;2023-04-01T04:12:25;14.10;72.60
72883;DHT22;61017;37.812;-122.286;2023-04-01T04:13:56;14.20;72.70
72883;DHT22;61017;37.812;-122.286;2023-04-01T04:15:27;14.20;73.00
72883;DHT22;61017;37.812;-122.286;2023-04-01T04:16:58;14.20;72.90
72883;DHT22;61017;37.812;-122.286;2023-04-01T04:18:29;14.10;72.70
72883;DHT22;61017;37.812;-122.286;2023-04-01T04:20:00;14.20;73.00
72883;DHT22;61017;37.812;-122.286;2023-04-01T04:21:32;14.10;73.00
72883;DHT22;61017;37.812;-122.286;2023-04-01T04:23:03;14.10;72.80
72883;DHT22;61017;37.812;-122.286;2023-04-01T04:24:34;14.20;72.80
72883;DHT22;61017;37.812;-122.286;2023-04-01T04:26:06;14.20;73.00
72883;DHT22;61017;37.812;-122.286;2023-04-01T04:27:38;14.20;73.00
72883;DHT22;61017;37.812;-122.286;2023-04-01T04:29:09;14.20;73.00
72883;DHT22;61017;37.812;-122.286;2023-04-01T04:30:40;14.10;73.10
72883;DHT22;61017;37.812;-122.286;2023-04-01T04:32:11;14.20;72.90
72883;DHT22;61017;37.812;-122.286;2023-04-01T04:33:42;14.20;73.10
72883;DHT22;61017;37.812;-122.286;2023-04-01T04:35:13;14.20;73.50
72883;DHT22;61017;37.812;-122.286;2023-04-01T04:36:45;14.20;73.30
72883;DHT22;61017;37.812;-122.286;2023-04-01T04:38:17;14.20;73.30
72883;DHT22;61017;37.812;-122.286;2023-04-01T04:39:48;14.20;73.00
72883;DHT22;61017;37.812;-122.286;2023-04-01T04:41:19;14.10;72.80
72883;DHT22;61017;37.812;-122.286;2023-04-01T04:42:50;14.20;73.40
72883;DHT22;61017;37.812;-122.286;2023-04-01T04:44:21;14.20;73.30
72883;DHT22;61017;37.812;-122.286;2023-04-01T04:45:53;14.10;73.20
72883;DHT22;61017;37.812;-122.286;2023-04-01T04:47:24;14.20;73.10
72883;DHT22;61017;37.812;-122.286;2023-04-01T04:48:55;14.20;73.00
72883;DHT22;61017;37.812;-122.286;2023-04-01T04:50:26;14.10;73.60
72883;DHT22;61017;37.812;-122.286;2023-04-01T04:51:57;14.10;72.90
72883;DHT22;61017;37.812;-122.286;2023-04-01T04:53:28;14.20;73.30
72883;DHT22;61017;37.812;-122.286;2023-04-01T04:54:59;14.20;73.10
72883;DHT22;61017;37.812;-122.286;2023-04-01T04:56:30;14.10;73.30
72883;DHT22;61017;37.812;-122.286;2023-04-01T04:58:01;14.20;73.00
72883;DHT22;61017;37.812;-122.286;2023-04-01T04:59:33;14.20;74.30
72883;DHT22;61017;37.812;-122.286;2023-04-01T05:01:08;14.20;73.40
72883;DHT22;61017;37.812;-122.286;2023-04-01T05:02:39;14.10;73.60
72883;DHT22;61017;37.812;-122.286;2023-04-01T05:04:10;14.20;73.70
72883;DHT22;61017;37.812;-122.286;2023-04-01T05:05:47;14.20;73.10
72883;DHT22;61017;37.812;-122.286;2023-04-01T05:07:18;14.20;73.30
72883;DHT22;61017;37.812;-122.286;2023-04-01T05:08:52;14.10;73.40
72883;DHT22;61017;37.812;-122.286;2023-04-01T05:10:23;14.20;73.40
72883;DHT22;61017;37.812;-122.286;2023-04-01T05:11:54;14.20;73.40
72883;DHT22;61017;37.812;-122.286;2023-04-01T05:13:25;14.20;73.80
72883;DHT22;61017;37.812;-122.286;2023-04-01T05:14:56;14.20;73.50
72883;DHT22;61017;37.812;-122.286;2023-04-01T05:16:29;14.20;73.40
72883;DHT22;61017;37.812;-122.286;2023-04-01T05:18:00;14.20;73.40
72883;DHT22;61017;37.812;-122.286;2023-04-01T05:19:31;14.20;73.30
72883;DHT22;61017;37.812;-122.286;2023-04-01T05:21:02;14.20;73.50
72883;DHT22;61017;37.812;-122.286;2023-04-01T05:22:33;14.20;73.30
72883;DHT22;61017;37.812;-122.286;2023-04-01T05:24:07;14.20;73.60
72883;DHT22;61017;37.812;-122.286;2023-04-01T05:25:38;14.20;73.70
72883;DHT22;61017;37.812;-122.286;2023-04-01T05:27:09;14.20;73.80
72883;DHT22;61017;37.812;-122.286;2023-04-01T05:28:40;14.20;73.50
72883;DHT22;61017;37.812;-122.286;2023-04-01T05:30:11;14.20;73.40
72883;DHT22;61017;37.812;-122.286;2023-04-01T05:31:42;14.20;73.40
72883;DHT22;61017;37.812;-122.286;2023-04-01T05:33:13;14.20;73.30
72883;DHT22;61017;37.812;-122.286;2023-04-01T05:34:45;14.20;73.20
72883;DHT22;61017;37.812;-122.286;2023-04-01T05:36:16;14.20;73.50
72883;DHT22;61017;37.812;-122.286;2023-04-01T05:37:47;14.20;73.50
72883;DHT22;61017;37.812;-122.286;2023-04-01T05:39:18;14.10;73.30
72883;DHT22;61017;37.812;-122.286;2023-04-01T05:40:49;14.20;73.40
72883;DHT22;61017;37.812;-122.286;2023-04-01T05:42:23;14.20;73.30
72883;DHT22;61017;37.812;-122.286;2023-04-01T05:43:54;14.20;73.30
72883;DHT22;61017;37.812;-122.286;2023-04-01T05:45:25;14.10;73.30
72883;DHT22;61017;37.812;-122.286;2023-04-01T05:46:57;14.20;73.30
72883;DHT22;61017;37.812;-122.286;2023-04-01T05:48:28;14.20;73.40
72883;DHT22;61017;37.812;-122.286;2023-04-01T05:49:59;14.20;73.40
72883;DHT22;61017;37.812;-122.286;2023-04-01T05:51:30;14.10;73.30
72883;DHT22;61017;37.812;-122.286;2023-04-01T05:53:01;14.20;73.50
72883;DHT22;61017;37.812;-122.286;2023-04-01T05:54:32;14.10;73.30
72883;DHT22;61017;37.812;-122.286;2023-04-01T05:56:04;14.20;73.40
72883;DHT22;61017;37.812;-122.286;2023-04-01T05:57:35;14.10;73.30
72883;DHT22;61017;37.812;-122.286;2023-04-01T05:59:06;14.10;73.30
72883;DHT22;61017;37.812;-122.286;2023-04-01T06:00:37;14.10;73.40
72883;DHT22;61017;37.812;-122.286;2023-04-01T06:02:09;14.10;73.30
72883;DHT22;61017;37.812;-122.286;2023-04-01T06:03:40;14.10;73.30
72883;DHT22;61017;37.812;-122.286;2023-04-01T06:06:48;14.10;73.40
72883;DHT22;61017;37.812;-122.286;2023-04-01T06:08:19;14.10;73.30
72883;DHT22;61017;37.812;-122.286;2023-04-01T06:09:52;14.10;73.30
72883;DHT22;61017;37.812;-122.286;2023-04-01T06:11:40;14.10;73.40
72883;DHT22;61017;37.812;-122.286;2023-04-01T06:13:18;14.10;73.40
72883;DHT22;61017;37.812;-122.286;2023-04-01T06:15:11;14.10;73.30
72883;DHT22;61017;37.812;-122.286;2023-04-01T06:18:37;14.10;73.30
72883;DHT22;61017;37.812;-122.286;2023-04-01T06:27:23;14.10;73.60
72883;DHT22;61017;37.812;-122.286;2023-04-01T06:29:05;14.10;73.40
72883;DHT22;61017;37.812;-122.286;2023-04-01T06:32:30;14.10;73.60
72883;DHT22;61017;37.812;-122.286;2023-04-01T06:37:52;14.10;73.60
72883;DHT22;61017;37.812;-122.286;2023-04-01T06:39:37;14.10;73.50
72883;DHT22;61017;37.812;-122.286;2023-04-01T06:41:20;14.10;73.60
72883;DHT22;61017;37.812;-122.286;2023-04-01T06:43:07;14.10;73.60
72883;DHT22;61017;37.812;-122.286;2023-04-01T06:44:56;14.10;73.60
72883;DHT22;61017;37.812;-122.286;2023-04-01T06:50:01;14.10;73.60
72883;DHT22;61017;37.812;-122.286;2023-04-01T06:55:20;14.10;73.80
72883;DHT22;61017;37.812;-122.286;2023-04-01T06:56:48;14.10;73.80
72883;DHT22;61017;37.812;-122.286;2023-04-01T06:58:21;14.10;73.80
72883;DHT22;61017;37.812;-122.286;2023-04-01T06:59:54;14.10;73.80
72883;DHT22;61017;37.812;-122.286;2023-04-01T07:01:28;14.10;73.80
72883;DHT22;61017;37.812;-122.286;2023-04-01T07:04:34;14.10;73.70
72883;DHT22;61017;37.812;-122.286;2023-04-01T07:06:14;14.10;73.80
72883;DHT22;61017;37.812;-122.286;2023-04-01T07:07:50;14.10;73.80
72883;DHT22;61017;37.812;-122.286;2023-04-01T07:09:24;14.10;73.80
72883;DHT22;61017;37.812;-122.286;2023-04-01T07:11:03;14.10;73.80
72883;DHT22;61017;37.812;-122.286;2023-04-01T07:12:40;14.10;73.80
72883;DHT22;61017;37.812;-122.286;2023-04-01T07:14:17;14.10;73.80
72883;DHT22;61017;37.812;-122.286;2023-04-01T07:16:03;14.10;73.80
72883;DHT22;61017;37.812;-122.286;2023-04-01T07:17:35;14.10;73.80
72883;DHT22;61017;37.812;-122.286;2023-04-01T07:20:56;14.10;73.90
72883;DHT22;61017;37.812;-122.286;2023-04-01T07:22:32;14.10;73.90
72883;DHT22;61017;37.812;-122.286;2023-04-01T07:24:05;14.10;73.90
72883;DHT22;61017;37.812;-122.286;2023-04-01T07:25:41;14.10;73.90
72883;DHT22;61017;37.812;-122.286;2023-04-01T07:27:14;14.10;73.90
72883;DHT22;61017;37.812;-122.286;2023-04-01T07:28:45;14.10;73.90
72883;DHT22;61017;37.812;-122.286;2023-04-01T07:30:20;14.10;73.90
72883;DHT22;61017;37.812;-122.286;2023-04-01T07:35:22;14.10;73.90
72883;DHT22;61017;37.812;-122.286;2023-04-01T07:38:49;14.10;74.00
72883;DHT22;61017;37.812;-122.286;2023-04-01T07:45:36;14.10;74.00
72883;DHT22;61017;37.812;-122.286;2023-04-01T07:50:17;14.10;74.00
72883;DHT22;61017;37.812;-122.286;2023-04-01T07:51:58;14.10;74.00
72883;DHT22;61017;37.812;-122.286;2023-04-01T07:53:33;14.10;74.00
72883;DHT22;61017;37.812;-122.286;2023-04-01T07:55:16;14.10;74.00
72883;DHT22;61017;37.812;-122.286;2023-04-01T08:10:23;14.00;74.00
72883;DHT22;61017;37.812;-122.286;2023-04-01T08:13:42;14.10;74.10
72883;DHT22;61017;37.812;-122.286;2023-04-01T08:15:22;14.00;73.90
72883;DHT22;61017;37.812;-122.286;2023-04-01T08:16:57;14.00;74.00
72883;DHT22;61017;37.812;-122.286;2023-04-01T08:21:47;14.00;73.90
72883;DHT22;61017;37.812;-122.286;2023-04-01T08:23:33;14.00;73.90
72883;DHT22;61017;37.812;-122.286;2023-04-01T08:25:08;14.00;73.90
72883;DHT22;61017;37.812;-122.286;2023-04-01T08:26:43;14.00;73.90
72883;DHT22;61017;37.812;-122.286;2023-04-01T08:29:50;14.00;73.90
72883;DHT22;61017;37.812;-122.286;2023-04-01T08:31:29;14.00;74.00
72883;DHT22;61017;37.812;-122.286;2023-04-01T08:36:39;14.00;73.90
72883;DHT22;61017;37.812;-122.286;2023-04-01T08:38:12;14.00;73.90
72883;DHT22;61017;37.812;-122.286;2023-04-01T08:39:46;14.00;73.90
72883;DHT22;61017;37.812;-122.286;2023-04-01T08:46:33;14.00;73.90
72883;DHT22;61017;37.812;-122.286;2023-04-01T08:49:43;14.00;73.90
72883;DHT22;61017;37.812;-122.286;2023-04-01T08:56:06;14.00;73.80
72883;DHT22;61017;37.812;-122.286;2023-04-01T09:14:09;14.00;73.60
72883;DHT22;61017;37.812;-122.286;2023-04-01T09:15:50;14.00;73.50
72883;DHT22;61017;37.812;-122.286;2023-04-01T09:19:15;14.00;73.60
72883;DHT22;61017;37.812;-122.286;2023-04-01T09:20:52;14.00;73.50
72883;DHT22;61017;37.812;-122.286;2023-04-01T09:26:06;14.00;73.40
72883;DHT22;61017;37.812;-122.286;2023-04-01T09:27:53;14.00;73.50
72883;DHT22;61017;37.812;-122.286;2023-04-01T09:29:37;14.00;73.50
72883;DHT22;61017;37.812;-122.286;2023-04-01T09:36:23;14.00;73.40
72883;DHT22;61017;37.812;-122.286;2023-04-01T09:38:12;14.00;73.50
72883;DHT22;61017;37.812;-122.286;2023-04-01T09:44:32;14.00;73.40
72883;DHT22;61017;37.812;-122.286;2023-04-01T09:46:11;14.00;73.50
72883;DHT22;61017;37.812;-122.286;2023-04-01T09:52:22;14.00;73.40
72883;DHT22;61017;37.812;-122.286;2023-04-01T10:07:39;13.90;73.40
72883;DHT22;61017;37.812;-122.286;2023-04-01T10:14:15;13.90;73.20
72883;DHT22;61017;37.812;-122.286;2023-04-01T10:16:14;13.90;73.20
72883;DHT22;61017;37.812;-122.286;2023-04-01T10:33:11;13.90;73.10
72883;DHT22;61017;37.812;-122.286;2023-04-01T10:36:47;13.90;73.10
72883;DHT22;61017;37.812;-122.286;2023-04-01T10:41:53;13.90;73.10
72883;DHT22;61017;37.812;-122.286;2023-04-01T10:47:13;13.90;73.00
72883;DHT22;61017;37.812;-122.286;2023-04-01T10:49:10;13.90;73.10
72883;DHT22;61017;37.812;-122.286;2023-04-01T10:51:10;13.90;73.00
72883;DHT22;61017;37.812;-122.286;2023-04-01T10:52:57;13.90;73.10
72883;DHT22;61017;37.812;-122.286;2023-04-01T10:56:39;13.90;73.10
72883;DHT22;61017;37.812;-122.286;2023-04-01T10:58:28;13.90;73.00
72883;DHT22;61017;37.812;-122.286;2023-04-01T11:05:29;13.90;73.00
72883;DHT22;61017;37.812;-122.286;2023-04-01T11:12:20;13.90;73.00
72883;DHT22;61017;37.812;-122.286;2023-04-01T11:24:36;13.90;72.90
72883;DHT22;61017;37.812;-122.286;2023-04-01T11:27:25;13.90;72.90
72883;DHT22;61017;37.812;-122.286;2023-04-01T11:32:54;13.90;72.90
72883;DHT22;61017;37.812;-122.286;2023-04-01T11:34:31;13.90;72.90
72883;DHT22;61017;37.812;-122.286;2023-04-01T11:37:42;13.90;72.90
72883;DHT22;61017;37.812;-122.286;2023-04-01T11:42:54;13.90;72.90
72883;DHT22;61017;37.812;-122.286;2023-04-01T11:44:27;13.90;72.90
72883;DHT22;61017;37.812;-122.286;2023-04-01T11:51:20;13.90;72.80
72883;DHT22;61017;37.812;-122.286;2023-04-01T11:56:39;13.90;72.70
72883;DHT22;61017;37.812;-122.286;2023-04-01T12:00:14;13.90;72.70
72883;DHT22;61017;37.812;-122.286;2023-04-01T12:03:38;13.90;72.70
72883;DHT22;61017;37.812;-122.286;2023-04-01T12:08:45;13.90;72.70
72883;DHT22;61017;37.812;-122.286;2023-04-01T12:16:55;13.90;72.60
72883;DHT22;61017;37.812;-122.286;2023-04-01T12:18:36;13.90;73.40
72883;DHT22;61017;37.812;-122.286;2023-04-01T12:25:06;13.90;72.60
72883;DHT22;61017;37.812;-122.286;2023-04-01T12:28:20;13.90;72.60
72883;DHT22;61017;37.812;-122.286;2023-04-01T12:45:00;13.80;72.30
72883;DHT22;61017;37.812;-122.286;2023-04-01T12:46:56;13.90;72.50
72883;DHT22;61017;37.812;-122.286;2023-04-01T12:50:12;13.80;72.40
72883;DHT22;61017;37.812;-122.286;2023-04-01T12:52:09;13.90;72.50
72883;DHT22;61017;37.812;-122.286;2023-04-01T12:55:36;13.80;72.30
72883;DHT22;61017;37.812;-122.286;2023-04-01T13:02:32;13.80;72.50
72883;DHT22;61017;37.812;-122.286;2023-04-01T13:07:48;13.80;72.40
72883;DHT22;61017;37.812;-122.286;2023-04-01T13:12:47;13.80;72.30
72883;DHT22;61017;37.812;-122.286;2023-04-01T13:14:29;13.80;73.20
72883;DHT22;61017;37.812;-122.286;2023-04-01T13:18:05;13.80;72.40
72883;DHT22;61017;37.812;-122.286;2023-04-01T13:19:46;13.80;72.30
72883;DHT22;61017;37.812;-122.286;2023-04-01T13:24:45;13.80;72.30
72883;DHT22;61017;37.812;-122.286;2023-04-01T13:26:39;13.80;72.30
72883;DHT22;61017;37.812;-122.286;2023-04-01T13:31:29;13.80;72.30
72883;DHT22;61017;37.812;-122.286;2023-04-01T13:35:18;13.80;72.30
72883;DHT22;61017;37.812;-122.286;2023-04-01T13:42:00;13.80;72.30
72883;DHT22;61017;37.812;-122.286;2023-04-01T13:44:22;13.80;72.40
72883;DHT22;61017;37.812;-122.286;2023-04-01T13:45:29;13.80;72.40
72883;DHT22;61017;37.812;-122.286;2023-04-01T13:52:06;13.80;72.50
72883;DHT22;61017;37.812;-122.286;2023-04-01T13:57:22;13.80;72.30
72883;DHT22;61017;37.812;-122.286;2023-04-01T13:58:57;13.80;72.30
72883;DHT22;61017;37.812;-122.286;2023-04-01T14:00:38;13.80;72.40
72883;DHT22;61017;37.812;-122.286;2023-04-01T14:04:09;13.80;72.40
72883;DHT22;61017;37.812;-122.286;2023-04-01T14:05:53;13.80;72.50
72883;DHT22;61017;37.812;-122.286;2023-04-01T14:12:25;13.80;72.30
72883;DHT22;61017;37.812;-122.286;2023-04-01T14:14:02;13.80;72.50
72883;DHT22;61017;37.812;-122.286;2023-04-01T14:15:42;13.80;72.40
72883;DHT22;61017;37.812;-122.286;2023-04-01T14:19:03;13.80;72.40
72883;DHT22;61017;37.812;-122.286;2023-04-01T14:21:03;13.80;72.50
72883;DHT22;61017;37.812;-122.286;2023-04-01T14:24:18;13.80;72.50
72883;DHT22;61017;37.812;-122.286;2023-04-01T14:26:03;13.80;72.40
72883;DHT22;61017;37.812;-122.286;2023-04-01T14:29:27;13.80;72.50
72883;DHT22;61017;37.812;-122.286;2023-04-01T14:31:19;13.90;72.60
72883;DHT22;61017;37.812;-122.286;2023-04-01T14:34:59;13.90;72.60
72883;DHT22;61017;37.812;-122.286;2023-04-01T14:36:38;13.90;72.70
72883;DHT22;61017;37.812;-122.286;2023-04-01T14:39:47;13.90;72.60
72883;DHT22;61017;37.812;-122.286;2023-04-01T14:41:21;13.90;72.70